createdAt,value
2022-08-01T00:00:11.435Z,19.38
2022-08-01T00:02:37.901Z,19.45
2022-08-01T00:05:04.279Z,19.48
2022-08-01T00:07:30.518Z,19.35
2022-08-01T00:09:56.770Z,19.30
2022-08-01T00:12:23.004Z,19.29
2022-08-01T00:14:49.239Z,19.36
2022-08-01T00:17:15.473Z,19.33
2022-08-01T00:19:41.724Z,19.39
2022-08-01T00:22:08.312Z,19.48
2022-08-01T00:24:34.821Z,19.51
2022-08-01T00:27:01.071Z,19.58
2022-08-01T00:30:12.120Z,19.44
2022-08-01T00:32:13.528Z,19.29
2022-08-01T00:34:39.780Z,19.24
2022-08-01T00:37:06.018Z,19.19
2022-08-01T00:39:32.245Z,19.04
2022-08-01T00:41:59.951Z,19.10
2022-08-01T00:44:26.511Z,19.25
2022-08-01T00:46:52.772Z,19.31
2022-08-01T00:49:19.065Z,19.31
2022-08-01T00:51:45.342Z,19.13
2022-08-01T00:54:11.572Z,19.09
2022-08-01T00:56:39.562Z,19.14
2022-08-01T00:59:05.807Z,19.20
2022-08-01T01:01:39.708Z,19.17
2022-08-01T01:04:08.360Z,19.19
2022-08-01T01:06:38.639Z,19.28
2022-08-01T01:09:23.876Z,19.33
2022-08-01T01:11:55.389Z,19.37
2022-08-01T01:14:28.492Z,19.28
2022-08-01T01:16:54.852Z,19.24
2022-08-01T01:19:22.041Z,19.22
2022-08-01T01:22:02.143Z,19.29
2022-08-01T01:24:43.458Z,19.35
2022-08-01T01:27:11.756Z,19.36
2022-08-01T01:30:00.238Z,19.43
2022-08-01T01:32:31.245Z,19.30
2022-08-01T01:34:57.530Z,19.35
2022-08-01T01:37:24.120Z,19.43
2022-08-01T01:39:54.351Z,19.47
2022-08-01T01:42:20.792Z,19.19
2022-08-01T01:44:47.025Z,19.09
2022-08-01T01:47:13.710Z,19.14
2022-08-01T01:49:39.941Z,19.04
2022-08-01T01:52:06.360Z,19.12
2022-08-01T01:54:36.834Z,19.21
2022-08-01T01:57:03.137Z,19.22
2022-08-01T01:59:29.957Z,19.19
2022-08-01T02:02:05.265Z,19.13
2022-08-01T02:04:33.050Z,19.09
2022-08-01T02:06:59.571Z,19.07
2022-08-01T02:09:25.949Z,19.13
2022-08-01T02:12:07.652Z,19.18
2022-08-01T02:14:35.319Z,19.15
2022-08-01T02:17:01.766Z,19.21
2022-08-01T02:19:27.996Z,19.28
2022-08-01T02:21:58.412Z,19.28
2022-08-01T02:24:41.903Z,19.15
2022-08-01T02:27:12.474Z,19.09
2022-08-01T02:29:40.699Z,19.00
2022-08-01T02:32:07.678Z,18.93
2022-08-01T02:34:34.176Z,18.96
2022-08-01T02:37:00.993Z,18.98
2022-08-01T02:39:27.497Z,19.00
2022-08-01T02:41:54.821Z,19.05
2022-08-01T02:44:24.135Z,19.05
2022-08-01T02:46:51.279Z,19.07
2022-08-01T02:49:17.546Z,19.10
2022-08-01T02:51:43.846Z,19.07
2022-08-01T02:54:10.129Z,19.07
2022-08-01T02:56:36.381Z,18.99
2022-08-01T02:59:03.821Z,18.98
2022-08-01T03:01:30.111Z,18.99
2022-08-01T03:03:58.741Z,19.02
2022-08-01T03:06:24.978Z,18.99
2022-08-01T03:08:51.232Z,19.05
2022-08-01T03:11:17.471Z,19.07
2022-08-01T03:13:43.713Z,19.03
2022-08-01T03:16:10.239Z,19.04
2022-08-01T03:18:36.498Z,19.06
2022-08-01T03:21:02.737Z,19.07
2022-08-01T03:23:37.699Z,19.02
2022-08-01T03:26:04.573Z,19.03
2022-08-01T03:28:30.813Z,19.01
2022-08-01T03:30:57.301Z,19.01
2022-08-01T03:33:23.547Z,19.02
2022-08-01T03:35:50.507Z,18.98
2022-08-01T03:38:18.230Z,19.02
2022-08-01T03:40:45.125Z,19.00
2022-08-01T03:43:16.853Z,18.97
2022-08-01T03:45:44.630Z,18.95
2022-08-01T03:48:11.774Z,18.99
2022-08-01T03:50:38.016Z,19.00
2022-08-01T03:53:04.263Z,19.07
2022-08-01T03:55:30.833Z,19.09
2022-08-01T03:57:57.087Z,19.12
2022-08-01T04:00:23.567Z,19.11
2022-08-01T04:02:49.905Z,19.08
2022-08-01T04:05:16.381Z,19.02
2022-08-01T04:07:45.736Z,19.02
2022-08-01T04:10:11.973Z,19.08
2022-08-01T04:12:38.218Z,19.08
2022-08-01T04:15:04.993Z,19.05
2022-08-01T04:17:31.240Z,19.05
2022-08-01T04:19:57.478Z,19.06
2022-08-01T04:22:23.720Z,19.03
2022-08-01T04:24:53.424Z,19.01
2022-08-01T04:27:48.603Z,19.00
2022-08-01T04:30:20.299Z,18.97
2022-08-01T04:32:47.399Z,19.00
2022-08-01T04:35:23.171Z,19.01
2022-08-01T04:37:59.937Z,19.03
2022-08-01T04:40:26.182Z,19.03
2022-08-01T04:42:52.429Z,19.02
2022-08-01T04:45:18.667Z,18.99
2022-08-01T04:47:44.923Z,18.97
2022-08-01T04:50:11.417Z,19.01
2022-08-01T04:52:37.952Z,19.00
2022-08-01T04:55:04.676Z,18.93
2022-08-01T04:57:30.922Z,18.88
2022-08-01T04:59:57.162Z,18.91
2022-08-01T05:02:23.560Z,18.90
2022-08-01T05:04:49.801Z,18.90
2022-08-01T05:07:16.051Z,18.91
2022-08-01T05:09:42.362Z,18.96
2022-08-01T05:12:09.185Z,19.00
2022-08-01T05:14:35.585Z,19.07
2022-08-01T05:17:02.445Z,19.07
2022-08-01T05:19:28.700Z,19.16
2022-08-01T05:21:54.928Z,19.19
2022-08-01T05:24:26.564Z,19.17
2022-08-01T05:26:53.098Z,19.09
2022-08-01T05:29:19.920Z,19.07
2022-08-01T05:31:46.157Z,19.11
2022-08-01T05:34:14.824Z,19.14
2022-08-01T05:36:41.627Z,19.13
2022-08-01T05:39:07.872Z,19.14
2022-08-01T05:41:34.101Z,19.11
2022-08-01T05:44:00.346Z,19.09
2022-08-01T05:46:27.680Z,19.11
2022-08-01T05:48:54.018Z,19.12
2022-08-01T05:51:20.259Z,19.19
2022-08-01T05:53:46.501Z,19.20
2022-08-01T05:56:12.733Z,19.19
2022-08-01T06:01:36.087Z,19.17
2022-08-01T06:04:22.884Z,19.13
2022-08-01T06:06:49.134Z,19.10
2022-08-01T06:09:15.382Z,19.09
2022-08-01T06:11:41.622Z,19.11
2022-08-01T06:14:08.050Z,19.12
2022-08-01T06:16:34.289Z,19.19
2022-08-01T06:19:00.540Z,19.21
2022-08-01T06:21:26.786Z,19.18
2022-08-01T06:23:53.025Z,19.22
2022-08-01T06:26:19.514Z,19.20
2022-08-01T06:28:45.768Z,19.25
2022-08-01T06:31:12.021Z,19.32
2022-08-01T06:33:38.272Z,19.23
2022-08-01T06:36:04.665Z,19.27
2022-08-01T06:38:30.919Z,19.23
2022-08-01T06:40:57.163Z,19.18
2022-08-01T06:43:23.409Z,19.17
2022-08-01T06:45:49.646Z,19.25
2022-08-01T06:48:15.885Z,19.24
2022-08-01T06:50:42.118Z,19.21
2022-08-01T06:53:08.399Z,19.30
2022-08-01T06:55:34.708Z,19.32
2022-08-01T06:58:00.950Z,19.29
2022-08-01T07:00:27.261Z,19.35
2022-08-01T07:02:53.895Z,19.34
2022-08-01T07:05:20.450Z,19.34
2022-08-01T07:07:46.694Z,19.34
2022-08-01T07:10:12.946Z,19.43
2022-08-01T07:12:39.270Z,19.52
2022-08-01T07:15:06.034Z,19.57
2022-08-01T07:17:32.266Z,19.58
2022-08-01T07:19:58.502Z,19.69
2022-08-01T07:22:24.749Z,19.59
2022-08-01T07:24:54.379Z,19.66
2022-08-01T07:27:24.115Z,19.55
2022-08-01T07:29:52.158Z,19.48
2022-08-01T07:32:19.843Z,19.57
2022-08-01T07:34:46.090Z,19.63
2022-08-01T07:37:12.324Z,19.63
2022-08-01T07:39:38.565Z,19.72
2022-08-01T07:42:07.471Z,19.66
2022-08-01T07:44:34.576Z,19.60
2022-08-01T07:47:00.806Z,19.52
2022-08-01T07:49:27.118Z,19.51
2022-08-01T07:52:03.311Z,19.57
2022-08-01T07:54:33.354Z,19.58
2022-08-01T07:57:00.420Z,19.65
2022-08-01T07:59:26.679Z,19.63
2022-08-01T08:01:52.957Z,19.62
2022-08-01T08:04:19.220Z,19.69
2022-08-01T08:06:45.479Z,19.72
2022-08-01T08:09:11.717Z,19.69
2022-08-01T08:11:37.960Z,19.72
2022-08-01T08:14:04.204Z,19.66
2022-08-01T08:16:30.460Z,19.61
2022-08-01T08:18:56.696Z,19.47
2022-08-01T08:21:22.942Z,19.44
2022-08-01T08:23:49.179Z,19.45
2022-08-01T08:26:15.435Z,19.46
2022-08-01T08:28:41.670Z,19.54
2022-08-01T08:31:48.729Z,19.61
2022-08-01T08:33:54.549Z,19.78
2022-08-01T08:36:20.795Z,19.79
2022-08-01T08:38:47.042Z,19.65
2022-08-01T08:41:16.799Z,19.54
2022-08-01T08:43:45.553Z,19.43
2022-08-01T08:46:11.953Z,19.43
2022-08-01T08:48:38.270Z,19.49
2022-08-01T08:51:04.522Z,19.55
2022-08-01T08:53:34.913Z,19.60
2022-08-01T08:56:01.302Z,19.73
2022-08-01T08:58:31.820Z,19.77
2022-08-01T09:00:58.236Z,19.82
2022-08-01T09:03:24.530Z,19.78
2022-08-01T09:05:50.807Z,19.79
2022-08-01T09:08:17.053Z,19.79
2022-08-01T09:10:43.310Z,19.87
2022-08-01T09:13:10.741Z,20.05
2022-08-01T09:15:46.940Z,20.32
2022-08-01T09:18:32.721Z,20.29
2022-08-01T09:21:12.601Z,20.33
2022-08-01T09:23:39.566Z,20.31
2022-08-01T09:26:21.133Z,20.34
2022-08-01T09:28:48.073Z,20.11
2022-08-01T09:31:15.195Z,19.85
2022-08-01T09:33:50.722Z,19.87
2022-08-01T09:36:18.318Z,20.02
2022-08-01T09:38:50.914Z,20.07
2022-08-01T09:41:17.728Z,19.88
2022-08-01T09:43:49.429Z,19.88
2022-08-01T09:46:16.293Z,19.73
2022-08-01T09:48:58.540Z,19.58
2022-08-01T09:51:58.984Z,19.74
2022-08-01T09:54:33.585Z,19.52
2022-08-01T09:57:13.194Z,19.29
2022-08-01T09:59:57.227Z,19.13
2022-08-01T10:02:31.633Z,18.98
2022-08-01T10:05:03.274Z,18.94
2022-08-01T10:07:43.652Z,18.88
2022-08-01T10:10:11.597Z,18.89
2022-08-01T10:12:37.870Z,18.97
2022-08-01T10:15:10.769Z,19.06
2022-08-01T10:17:50.719Z,19.15
2022-08-01T10:20:29.782Z,19.21
2022-08-01T10:22:56.395Z,19.12
2022-08-01T10:25:43.157Z,19.05
2022-08-01T10:28:14.679Z,19.09
2022-08-01T10:30:44.288Z,19.02
2022-08-01T10:33:15.364Z,18.92
2022-08-01T10:35:58.546Z,18.89
2022-08-01T10:38:27.648Z,18.87
2022-08-01T10:40:53.884Z,18.88
2022-08-01T10:43:21.464Z,19.00
2022-08-01T10:45:48.416Z,18.94
2022-08-01T10:48:33.682Z,19.54
2022-08-01T10:51:03.418Z,19.69
2022-08-01T10:53:31.118Z,19.64
2022-08-01T10:56:08.606Z,19.67
2022-08-01T10:58:39.833Z,19.84
2022-08-01T11:01:15.364Z,20.20
2022-08-01T11:03:56.632Z,19.85
2022-08-01T11:06:25.313Z,20.01
2022-08-01T11:08:51.863Z,19.80
2022-08-01T11:11:20.456Z,19.82
2022-08-01T11:14:01.021Z,19.78
2022-08-01T11:16:31.039Z,19.79
2022-08-01T11:18:58.550Z,19.82
2022-08-01T11:21:58.978Z,19.60
2022-08-01T11:24:49.756Z,19.55
2022-08-01T11:27:33.666Z,19.54
2022-08-01T11:30:09.248Z,19.43
2022-08-01T11:33:10.253Z,19.37
2022-08-01T11:35:35.841Z,19.45
2022-08-01T11:38:23.943Z,19.56
2022-08-01T11:41:09.890Z,19.60
2022-08-01T11:43:36.137Z,19.59
2022-08-01T11:46:02.407Z,19.69
2022-08-01T11:48:28.646Z,20.01
2022-08-01T11:50:55.449Z,20.38
2022-08-01T11:53:22.085Z,20.79
2022-08-01T11:55:51.708Z,21.22
2022-08-01T11:58:29.397Z,21.52
2022-08-01T12:00:57.907Z,21.65
2022-08-01T12:03:33.184Z,22.17
2022-08-01T12:06:00.364Z,21.49
2022-08-01T12:08:27.005Z,21.31
2022-08-01T12:10:53.254Z,20.43
2022-08-01T12:13:28.813Z,20.09
2022-08-01T12:15:56.980Z,20.01
2022-08-01T12:18:23.296Z,20.29
2022-08-01T12:20:56.554Z,20.27
2022-08-01T12:23:23.424Z,20.32
2022-08-01T12:25:51.868Z,20.50
2022-08-01T12:28:18.092Z,20.74
2022-08-01T12:30:44.352Z,20.95
2022-08-01T12:33:10.888Z,21.35
2022-08-01T12:35:37.719Z,21.40
2022-08-01T12:38:04.914Z,21.60
2022-08-01T12:40:31.962Z,21.46
2022-08-01T12:42:58.965Z,21.51
2022-08-01T12:45:25.933Z,21.63
2022-08-01T12:47:52.382Z,21.42
2022-08-01T12:50:19.485Z,21.59
2022-08-01T12:52:45.732Z,21.77
2022-08-01T12:55:21.590Z,21.72
2022-08-01T12:57:49.196Z,21.78
2022-08-01T13:00:16.642Z,21.09
2022-08-01T13:02:42.922Z,21.43
2022-08-01T13:05:09.207Z,21.40
2022-08-01T13:07:44.996Z,21.85
2022-08-01T13:10:14.332Z,21.80
2022-08-01T13:12:41.098Z,21.95
2022-08-01T13:15:17.581Z,21.88
2022-08-01T13:17:43.870Z,21.93
2022-08-01T13:20:12.194Z,21.94
2022-08-01T13:22:38.489Z,21.92
2022-08-01T13:25:14.566Z,21.83
2022-08-01T13:27:53.744Z,21.67
2022-08-01T13:30:22.874Z,21.93
2022-08-01T13:33:01.378Z,21.71
2022-08-01T13:35:27.712Z,21.75
2022-08-01T13:37:54.000Z,21.78
2022-08-01T13:40:24.255Z,21.60
2022-08-01T13:42:50.529Z,21.87
2022-08-01T13:45:16.778Z,21.81
2022-08-01T13:48:04.250Z,22.09
2022-08-01T13:50:34.768Z,22.22
2022-08-01T13:53:03.456Z,22.00
2022-08-01T13:55:34.685Z,21.56
2022-08-01T13:58:01.377Z,21.22
2022-08-01T14:00:27.667Z,21.42
2022-08-01T14:02:53.953Z,21.71
2022-08-01T14:05:20.306Z,21.54
2022-08-01T14:07:48.569Z,21.70
2022-08-01T14:10:19.802Z,21.92
2022-08-01T14:12:47.638Z,21.38
2022-08-01T14:15:14.057Z,21.53
2022-08-01T14:18:00.294Z,21.53
2022-08-01T14:20:26.770Z,21.30
2022-08-01T14:22:53.043Z,21.51
2022-08-01T14:25:23.975Z,21.56
2022-08-01T14:28:05.530Z,21.70
2022-08-01T14:30:31.765Z,21.85
2022-08-01T14:32:58.018Z,21.80
2022-08-01T14:35:24.269Z,21.79
2022-08-01T14:37:50.515Z,21.51
2022-08-01T14:40:16.773Z,21.55
2022-08-01T14:42:46.153Z,21.35
2022-08-01T14:45:12.649Z,21.38
2022-08-01T14:47:39.183Z,21.60
2022-08-01T14:50:05.825Z,21.55
2022-08-01T14:52:32.089Z,21.17
2022-08-01T14:54:58.328Z,21.14
2022-08-01T14:57:24.628Z,21.49
2022-08-01T14:59:50.890Z,21.49
2022-08-01T15:02:17.162Z,21.30
2022-08-01T15:04:46.891Z,21.55
2022-08-01T15:07:13.155Z,21.49
2022-08-01T15:09:39.505Z,21.36
2022-08-01T15:12:06.181Z,21.35
2022-08-01T15:14:32.547Z,21.12
2022-08-01T15:16:58.789Z,21.24
2022-08-01T15:19:25.261Z,21.47
2022-08-01T15:22:01.585Z,21.17
2022-08-01T15:24:28.084Z,21.33
2022-08-01T15:26:54.777Z,21.45
2022-08-01T15:29:21.038Z,21.41
2022-08-01T15:31:47.284Z,21.38
2022-08-01T15:34:13.550Z,21.53
2022-08-01T15:36:41.987Z,21.21
2022-08-01T15:39:11.073Z,21.42
2022-08-01T15:41:37.319Z,21.44
2022-08-01T15:44:03.662Z,21.30
2022-08-01T15:46:29.914Z,21.24
2022-08-01T15:48:56.248Z,20.95
2022-08-01T15:51:22.584Z,20.94
2022-08-01T15:53:48.900Z,20.95
2022-08-01T15:56:15.145Z,21.10
2022-08-01T15:58:41.399Z,21.17
2022-08-01T16:01:07.649Z,21.00
2022-08-01T16:03:33.893Z,20.99
2022-08-01T16:06:00.140Z,20.72
2022-08-01T16:08:26.377Z,20.98
2022-08-01T16:10:52.605Z,21.08
2022-08-01T16:13:21.815Z,20.95
2022-08-01T16:15:48.048Z,20.70
2022-08-01T16:18:14.290Z,20.58
2022-08-01T16:20:45.434Z,20.48
2022-08-01T16:23:12.236Z,20.46
2022-08-01T16:25:38.469Z,20.56
2022-08-01T16:28:04.809Z,20.60
2022-08-01T16:30:31.064Z,20.54
2022-08-01T16:32:59.299Z,20.58
2022-08-01T16:35:32.662Z,20.70
2022-08-01T16:38:02.442Z,20.72
2022-08-01T16:40:28.682Z,20.53
2022-08-01T16:42:54.944Z,20.43
2022-08-01T16:45:24.845Z,20.52
2022-08-01T16:47:51.093Z,20.46
2022-08-01T16:50:17.342Z,20.34
2022-08-01T16:52:44.538Z,20.48
2022-08-01T16:55:10.993Z,20.44
2022-08-01T16:57:37.275Z,20.32
2022-08-01T17:00:07.834Z,20.19
2022-08-01T17:02:34.281Z,20.19
2022-08-01T17:05:00.543Z,20.20
2022-08-01T17:07:33.559Z,20.16
2022-08-01T17:10:00.996Z,20.13
2022-08-01T17:12:27.663Z,20.11
2022-08-01T17:14:53.902Z,20.02
2022-08-01T17:17:20.260Z,19.99
2022-08-01T17:19:46.501Z,19.96
2022-08-01T17:22:12.733Z,19.97
2022-08-01T17:24:39.041Z,19.98
2022-08-01T17:27:09.413Z,19.98
2022-08-01T17:29:43.309Z,19.99
2022-08-01T17:32:10.504Z,19.98
2022-08-01T17:34:36.748Z,19.95
2022-08-01T17:37:03.106Z,19.90
2022-08-01T17:39:39.254Z,19.85
2022-08-01T17:42:06.000Z,19.80
2022-08-01T17:44:32.288Z,19.80
2022-08-01T17:46:58.526Z,19.79
2022-08-01T17:49:45.256Z,19.70
2022-08-01T17:52:11.001Z,19.68
2022-08-01T17:54:37.253Z,19.55
2022-08-01T17:57:03.621Z,19.53
2022-08-01T17:59:34.587Z,19.52
2022-08-01T18:02:00.926Z,19.54
2022-08-01T18:04:27.213Z,19.51
2022-08-01T18:06:58.669Z,19.33
2022-08-01T18:09:25.334Z,19.26
2022-08-01T18:11:51.582Z,19.20
2022-08-01T18:14:17.835Z,19.14
2022-08-01T18:16:44.112Z,19.17
2022-08-01T18:19:10.367Z,19.10
2022-08-01T18:21:39.825Z,18.96
2022-08-01T18:24:09.003Z,18.84
2022-08-01T18:26:35.233Z,18.79
2022-08-01T18:29:01.481Z,18.73
2022-08-01T18:31:27.769Z,18.57
2022-08-01T18:33:54.038Z,18.63
2022-08-01T18:36:33.372Z,18.48
2022-08-01T18:39:04.341Z,18.39
2022-08-01T18:41:31.289Z,18.45
2022-08-01T18:44:07.518Z,18.46
2022-08-01T18:46:34.464Z,18.37
2022-08-01T18:49:00.753Z,18.50
2022-08-01T18:51:27.026Z,18.55
2022-08-01T18:53:53.255Z,18.54
2022-08-01T18:56:19.501Z,18.52
2022-08-01T18:58:45.741Z,18.47
2022-08-01T19:01:12.069Z,18.42
2022-08-01T19:03:42.324Z,18.34
2022-08-01T19:06:09.078Z,18.28
2022-08-01T19:08:35.314Z,18.21
2022-08-01T19:11:01.563Z,18.19
2022-08-01T19:13:27.797Z,18.15
2022-08-01T19:15:54.042Z,18.10
2022-08-01T19:18:20.286Z,18.05
2022-08-01T19:20:46.531Z,17.99
2022-08-01T19:23:12.761Z,17.94
2022-08-01T19:25:55.493Z,17.89
2022-08-01T19:28:25.580Z,17.81
2022-08-01T19:30:53.572Z,17.76
2022-08-01T19:33:20.191Z,17.72
2022-08-01T19:35:46.454Z,17.60
2022-08-01T19:38:12.722Z,17.60
2022-08-01T19:40:38.961Z,17.57
2022-08-01T19:43:06.190Z,17.51
2022-08-01T19:45:32.446Z,17.45
2022-08-01T19:47:58.872Z,17.33
2022-08-01T19:50:25.956Z,17.30
2022-08-01T19:52:52.195Z,16.48
2022-08-01T19:55:18.469Z,16.13
2022-08-01T19:57:47.476Z,15.87
2022-08-01T20:00:27.686Z,16.41
2022-08-01T20:02:54.787Z,16.45
2022-08-01T20:05:23.434Z,16.61
2022-08-01T20:07:49.674Z,16.63
2022-08-01T20:10:15.938Z,16.65
2022-08-01T20:12:42.168Z,16.63
2022-08-01T20:15:08.607Z,16.19
2022-08-01T20:17:34.852Z,16.29
2022-08-01T20:20:01.088Z,15.86
2022-08-01T20:22:27.333Z,15.56
2022-08-01T20:24:53.949Z,15.82
2022-08-01T20:27:20.220Z,15.67
2022-08-01T20:29:46.468Z,15.83
2022-08-01T20:32:12.747Z,16.13
2022-08-01T20:34:39.025Z,15.93
2022-08-01T20:37:09.055Z,15.84
2022-08-01T20:39:39.655Z,15.97
2022-08-01T20:42:09.049Z,16.03
2022-08-01T20:44:35.289Z,15.99
2022-08-01T20:47:01.974Z,15.89
2022-08-01T20:49:28.242Z,15.98
2022-08-01T20:51:54.539Z,15.78
2022-08-01T20:54:20.772Z,15.82
2022-08-01T20:56:56.411Z,15.86
2022-08-01T20:59:54.772Z,15.89
2022-08-01T21:02:33.086Z,15.89
2022-08-01T21:05:09.160Z,15.82
2022-08-01T21:07:54.839Z,15.78
2022-08-01T21:10:21.289Z,15.64
2022-08-01T21:12:50.341Z,15.69
2022-08-01T21:15:25.744Z,15.68
2022-08-01T21:17:51.967Z,15.65
2022-08-01T21:20:18.218Z,15.64
2022-08-01T21:22:47.433Z,15.60
2022-08-01T21:25:13.683Z,15.60
2022-08-01T21:27:39.934Z,15.52
2022-08-01T21:30:07.184Z,15.60
2022-08-01T21:32:33.764Z,15.62
2022-08-01T21:35:00.216Z,15.57
2022-08-01T21:37:26.466Z,15.52
2022-08-01T21:39:52.696Z,15.41
2022-08-01T21:42:19.480Z,15.42
2022-08-01T21:44:46.113Z,15.29
2022-08-01T21:47:12.605Z,15.24
2022-08-01T21:49:39.187Z,15.15
2022-08-01T21:52:11.166Z,14.37
2022-08-01T21:54:47.241Z,13.85
2022-08-01T21:57:24.743Z,14.28
2022-08-01T21:59:50.933Z,14.58
2022-08-01T22:02:32.940Z,14.87
2022-08-01T22:05:02.154Z,14.99
2022-08-01T22:07:28.377Z,14.87
2022-08-01T22:09:54.626Z,14.74
2022-08-01T22:12:21.138Z,14.64
2022-08-01T22:14:47.944Z,14.69
2022-08-01T22:17:15.028Z,14.84
2022-08-01T22:19:45.601Z,14.84
2022-08-01T22:22:44.313Z,15.01
2022-08-01T22:24:59.923Z,14.98
2022-08-01T22:28:05.445Z,15.00
2022-08-01T22:30:12.802Z,14.91
2022-08-01T22:32:39.712Z,14.93
2022-08-01T22:35:06.664Z,14.96
2022-08-01T22:37:56.598Z,14.67
2022-08-01T22:40:19.136Z,14.71
2022-08-01T22:42:45.834Z,14.72
2022-08-01T22:45:38.349Z,14.62
2022-08-01T22:48:07.364Z,14.79
2022-08-01T22:50:36.734Z,14.75
2022-08-01T22:53:21.843Z,14.82
2022-08-01T22:55:58.941Z,14.67
2022-08-01T22:58:25.655Z,14.77
2022-08-01T23:00:53.761Z,14.75
2022-08-01T23:03:23.513Z,14.70
2022-08-01T23:05:55.924Z,14.66
2022-08-01T23:08:22.370Z,14.59
2022-08-01T23:10:48.626Z,14.65
2022-08-01T23:13:15.385Z,14.67
2022-08-01T23:15:42.902Z,14.70
2022-08-01T23:18:18.709Z,14.66
2022-08-01T23:20:44.962Z,14.65
2022-08-01T23:23:11.214Z,14.60
2022-08-01T23:25:37.526Z,14.48
2022-08-01T23:28:06.150Z,14.57
2022-08-01T23:30:33.021Z,14.62
2022-08-01T23:32:59.291Z,14.59
2022-08-01T23:35:25.554Z,14.58
2022-08-01T23:37:51.792Z,14.45
2022-08-01T23:40:18.284Z,14.49
2022-08-01T23:42:44.517Z,14.48
2022-08-01T23:45:11.049Z,14.48
2022-08-01T23:47:37.295Z,14.46
2022-08-01T23:50:03.698Z,14.45
2022-08-01T23:52:32.030Z,14.40
2022-08-01T23:54:58.861Z,14.41
2022-08-01T23:57:25.957Z,14.37
2022-08-01T23:59:53.660Z,14.38
